sensor_id;sensor_type;location;lat;lon;timestamp;P1;durP1;ratioP1;P2;durP2;ratioP2
26060;SDS011;36331;51.378;0.018;2022-12-20T00:00:15;9.27;;;2.20;;
26060;SDS011;36331;51.378;0.018;2022-12-20T00:02:45;3.93;;;1.60;;
26060;SDS011;36331;51.378;0.018;2022-12-20T00:05:14;11.98;;;2.45;;
26060;SDS011;36331;51.378;0.018;2022-12-20T00:07:43;5.22;;;2.33;;
26060;SDS011;36331;51.378;0.018;2022-12-20T00:10:13;5.72;;;1.92;;
26060;SDS011;36331;51.378;0.018;2022-12-20T00:12:42;10.40;;;1.70;;
26060;SDS011;36331;51.378;0.018;2022-12-20T00:15:11;9.20;;;2.42;;
26060;SDS011;36331;51.378;0.018;2022-12-20T00:17:41;8.27;;;1.60;;
26060;SDS011;36331;51.378;0.018;2022-12-20T00:20:11;6.85;;;1.92;;
26060;SDS011;36331;51.378;0.018;2022-12-20T00:22:40;7.38;;;2.38;;
26060;SDS011;36331;51.378;0.018;2022-12-20T00:25:09;8.07;;;2.10;;
26060;SDS011;36331;51.378;0.018;2022-12-20T00:27:38;9.07;;;2.10;;
26060;SDS011;36331;51.378;0.018;2022-12-20T00:30:08;13.52;;;2.58;;
26060;SDS011;36331;51.378;0.018;2022-12-20T00:32:38;11.85;;;2.65;;
26060;SDS011;36331;51.378;0.018;2022-12-20T00:35:08;6.53;;;2.42;;
26060;SDS011;36331;51.378;0.018;2022-12-20T00:37:38;4.28;;;1.60;;
26060;SDS011;36331;51.378;0.018;2022-12-20T00:40:07;12.05;;;1.75;;
26060;SDS011;36331;51.378;0.018;2022-12-20T00:42:37;8.70;;;2.13;;
26060;SDS011;36331;51.378;0.018;2022-12-20T00:45:06;6.15;;;1.23;;
26060;SDS011;36331;51.378;0.018;2022-12-20T00:47:35;6.32;;;2.10;;
26060;SDS011;36331;51.378;0.018;2022-12-20T00:50:05;8.15;;;3.17;;
26060;SDS011;36331;51.378;0.018;2022-12-20T00:52:36;8.82;;;1.95;;
26060;SDS011;36331;51.378;0.018;2022-12-20T00:55:06;5.93;;;1.75;;
26060;SDS011;36331;51.378;0.018;2022-12-20T00:57:36;8.13;;;1.10;;
26060;SDS011;36331;51.378;0.018;2022-12-20T01:00:05;6.85;;;1.52;;
26060;SDS011;36331;51.378;0.018;2022-12-20T01:02:35;4.95;;;1.30;;
26060;SDS011;36331;51.378;0.018;2022-12-20T01:05:05;7.88;;;1.33;;
26060;SDS011;36331;51.378;0.018;2022-12-20T01:07:37;3.47;;;1.00;;
26060;SDS011;36331;51.378;0.018;2022-12-20T01:10:07;4.70;;;2.05;;
26060;SDS011;36331;51.378;0.018;2022-12-20T01:12:36;3.83;;;1.00;;
26060;SDS011;36331;51.378;0.018;2022-12-20T01:15:06;5.03;;;1.75;;
26060;SDS011;36331;51.378;0.018;2022-12-20T01:17:35;6.68;;;2.22;;
26060;SDS011;36331;51.378;0.018;2022-12-20T01:20:05;7.32;;;1.50;;
26060;SDS011;36331;51.378;0.018;2022-12-20T01:22:36;4.20;;;1.52;;
26060;SDS011;36331;51.378;0.018;2022-12-20T01:25:13;7.10;;;1.75;;
26060;SDS011;36331;51.378;0.018;2022-12-20T01:27:43;4.00;;;1.52;;
26060;SDS011;36331;51.378;0.018;2022-12-20T01:30:12;7.57;;;2.58;;
26060;SDS011;36331;51.378;0.018;2022-12-20T01:32:41;5.65;;;1.63;;
26060;SDS011;36331;51.378;0.018;2022-12-20T01:35:11;5.53;;;1.60;;
26060;SDS011;36331;51.378;0.018;2022-12-20T01:37:41;4.35;;;1.42;;
26060;SDS011;36331;51.378;0.018;2022-12-20T01:40:10;5.25;;;2.08;;
26060;SDS011;36331;51.378;0.018;2022-12-20T01:42:39;4.47;;;1.40;;
26060;SDS011;36331;51.378;0.018;2022-12-20T01:45:12;7.28;;;1.73;;
26060;SDS011;36331;51.378;0.018;2022-12-20T01:47:43;3.50;;;1.60;;
26060;SDS011;36331;51.378;0.018;2022-12-20T01:50:13;7.90;;;1.85;;
26060;SDS011;36331;51.378;0.018;2022-12-20T01:52:43;5.38;;;1.77;;
26060;SDS011;36331;51.378;0.018;2022-12-20T01:55:14;5.20;;;1.88;;
26060;SDS011;36331;51.378;0.018;2022-12-20T01:57:45;8.45;;;2.00;;
26060;SDS011;36331;51.378;0.018;2022-12-20T02:00:16;8.48;;;2.03;;
26060;SDS011;36331;51.378;0.018;2022-12-20T02:02:46;7.60;;;2.75;;
26060;SDS011;36331;51.378;0.018;2022-12-20T02:05:17;8.07;;;2.42;;
26060;SDS011;36331;51.378;0.018;2022-12-20T02:07:49;10.13;;;1.80;;
26060;SDS011;36331;51.378;0.018;2022-12-20T02:10:20;6.70;;;1.90;;
26060;SDS011;36331;51.378;0.018;2022-12-20T02:12:51;6.68;;;1.98;;
26060;SDS011;36331;51.378;0.018;2022-12-20T02:15:30;7.75;;;2.55;;
26060;SDS011;36331;51.378;0.018;2022-12-20T02:18:03;8.10;;;2.47;;
26060;SDS011;36331;51.378;0.018;2022-12-20T02:20:48;8.15;;;2.22;;
26060;SDS011;36331;51.378;0.018;2022-12-20T02:26:08;3.58;;;1.40;;
26060;SDS011;36331;51.378;0.018;2022-12-20T02:28:45;3.85;;;1.05;;
26060;SDS011;36331;51.378;0.018;2022-12-20T02:31:24;5.22;;;1.55;;
26060;SDS011;36331;51.378;0.018;2022-12-20T02:33:55;5.18;;;1.70;;
26060;SDS011;36331;51.378;0.018;2022-12-20T02:36:25;7.05;;;1.40;;
26060;SDS011;36331;51.378;0.018;2022-12-20T02:38:56;3.05;;;1.50;;
26060;SDS011;36331;51.378;0.018;2022-12-20T02:41:25;3.92;;;2.05;;
26060;SDS011;36331;51.378;0.018;2022-12-20T02:43:57;4.57;;;1.63;;
26060;SDS011;36331;51.378;0.018;2022-12-20T02:46:47;6.88;;;2.45;;
26060;SDS011;36331;51.378;0.018;2022-12-20T02:49:18;5.80;;;1.52;;
26060;SDS011;36331;51.378;0.018;2022-12-20T02:51:49;3.57;;;1.30;;
26060;SDS011;36331;51.378;0.018;2022-12-20T02:54:19;3.35;;;1.20;;
26060;SDS011;36331;51.378;0.018;2022-12-20T02:56:50;3.42;;;1.20;;
26060;SDS011;36331;51.378;0.018;2022-12-20T02:59:25;5.95;;;2.28;;
26060;SDS011;36331;51.378;0.018;2022-12-20T03:01:58;6.53;;;2.03;;
26060;SDS011;36331;51.378;0.018;2022-12-20T03:04:29;9.45;;;2.53;;
26060;SDS011;36331;51.378;0.018;2022-12-20T03:06:59;6.45;;;2.83;;
26060;SDS011;36331;51.378;0.018;2022-12-20T03:09:29;9.02;;;1.85;;
26060;SDS011;36331;51.378;0.018;2022-12-20T03:11:59;8.70;;;1.92;;
26060;SDS011;36331;51.378;0.018;2022-12-20T03:14:30;6.68;;;2.22;;
26060;SDS011;36331;51.378;0.018;2022-12-20T03:17:02;7.97;;;2.60;;
26060;SDS011;36331;51.378;0.018;2022-12-20T03:19:31;6.47;;;2.03;;
26060;SDS011;36331;51.378;0.018;2022-12-20T03:22:00;10.30;;;2.60;;
26060;SDS011;36331;51.378;0.018;2022-12-20T03:24:30;8.48;;;1.83;;
26060;SDS011;36331;51.378;0.018;2022-12-20T03:27:04;10.95;;;3.42;;
26060;SDS011;36331;51.378;0.018;2022-12-20T03:29:33;7.95;;;2.05;;
26060;SDS011;36331;51.378;0.018;2022-12-20T03:32:04;7.80;;;2.60;;
26060;SDS011;36331;51.378;0.018;2022-12-20T03:34:33;12.52;;;2.30;;
26060;SDS011;36331;51.378;0.018;2022-12-20T03:37:02;8.82;;;1.88;;
26060;SDS011;36331;51.378;0.018;2022-12-20T03:39:32;5.78;;;2.25;;
26060;SDS011;36331;51.378;0.018;2022-12-20T03:42:01;8.00;;;2.50;;
26060;SDS011;36331;51.378;0.018;2022-12-20T03:44:30;9.43;;;2.75;;
26060;SDS011;36331;51.378;0.018;2022-12-20T03:47:00;6.30;;;2.78;;
26060;SDS011;36331;51.378;0.018;2022-12-20T03:49:31;8.05;;;2.33;;
26060;SDS011;36331;51.378;0.018;2022-12-20T03:52:00;7.60;;;2.58;;
26060;SDS011;36331;51.378;0.018;2022-12-20T03:54:29;6.57;;;2.78;;
26060;SDS011;36331;51.378;0.018;2022-12-20T03:57:06;9.43;;;3.03;;
26060;SDS011;36331;51.378;0.018;2022-12-20T03:59:35;9.45;;;2.80;;
26060;SDS011;36331;51.378;0.018;2022-12-20T04:02:07;11.73;;;3.00;;
26060;SDS011;36331;51.378;0.018;2022-12-20T04:04:37;8.90;;;3.53;;
26060;SDS011;36331;51.378;0.018;2022-12-20T04:07:07;11.43;;;2.40;;
26060;SDS011;36331;51.378;0.018;2022-12-20T04:09:38;6.22;;;2.70;;
26060;SDS011;36331;51.378;0.018;2022-12-20T04:12:10;8.73;;;2.45;;
26060;SDS011;36331;51.378;0.018;2022-12-20T04:14:39;8.00;;;2.20;;
26060;SDS011;36331;51.378;0.018;2022-12-20T04:17:10;7.00;;;2.15;;
26060;SDS011;36331;51.378;0.018;2022-12-20T04:19:41;8.32;;;2.50;;
26060;SDS011;36331;51.378;0.018;2022-12-20T04:22:11;13.10;;;3.03;;
26060;SDS011;36331;51.378;0.018;2022-12-20T04:24:50;5.38;;;2.53;;
26060;SDS011;36331;51.378;0.018;2022-12-20T04:27:22;7.05;;;3.53;;
26060;SDS011;36331;51.378;0.018;2022-12-20T04:29:54;9.13;;;2.50;;
26060;SDS011;36331;51.378;0.018;2022-12-20T04:32:23;6.35;;;2.78;;
26060;SDS011;36331;51.378;0.018;2022-12-20T04:34:54;12.88;;;3.72;;
26060;SDS011;36331;51.378;0.018;2022-12-20T04:37:23;11.48;;;2.63;;
26060;SDS011;36331;51.378;0.018;2022-12-20T04:39:53;6.95;;;2.55;;
26060;SDS011;36331;51.378;0.018;2022-12-20T04:42:27;5.18;;;2.45;;
26060;SDS011;36331;51.378;0.018;2022-12-20T04:44:56;9.35;;;2.70;;
26060;SDS011;36331;51.378;0.018;2022-12-20T04:47:29;5.85;;;2.65;;
26060;SDS011;36331;51.378;0.018;2022-12-20T04:50:00;11.10;;;4.18;;
26060;SDS011;36331;51.378;0.018;2022-12-20T04:52:29;7.57;;;3.17;;
26060;SDS011;36331;51.378;0.018;2022-12-20T04:55:15;12.88;;;3.35;;
26060;SDS011;36331;51.378;0.018;2022-12-20T04:57:44;11.80;;;3.17;;
26060;SDS011;36331;51.378;0.018;2022-12-20T05:00:15;10.70;;;3.53;;
26060;SDS011;36331;51.378;0.018;2022-12-20T05:02:50;14.88;;;3.78;;
26060;SDS011;36331;51.378;0.018;2022-12-20T05:05:24;10.00;;;2.75;;
26060;SDS011;36331;51.378;0.018;2022-12-20T05:07:55;8.85;;;3.45;;
26060;SDS011;36331;51.378;0.018;2022-12-20T05:10:24;8.85;;;2.88;;
26060;SDS011;36331;51.378;0.018;2022-12-20T05:12:54;17.00;;;4.43;;
26060;SDS011;36331;51.378;0.018;2022-12-20T05:15:32;16.20;;;3.67;;
26060;SDS011;36331;51.378;0.018;2022-12-20T05:18:03;8.48;;;2.88;;
26060;SDS011;36331;51.378;0.018;2022-12-20T05:20:43;16.60;;;4.13;;
26060;SDS011;36331;51.378;0.018;2022-12-20T05:23:12;8.23;;;3.30;;
26060;SDS011;36331;51.378;0.018;2022-12-20T05:26:09;12.68;;;3.30;;
26060;SDS011;36331;51.378;0.018;2022-12-20T05:28:46;11.52;;;3.17;;
26060;SDS011;36331;51.378;0.018;2022-12-20T05:31:15;10.93;;;3.05;;
26060;SDS011;36331;51.378;0.018;2022-12-20T05:33:44;9.98;;;3.35;;
26060;SDS011;36331;51.378;0.018;2022-12-20T05:36:17;11.43;;;3.00;;
26060;SDS011;36331;51.378;0.018;2022-12-20T05:38:47;5.22;;;2.95;;
26060;SDS011;36331;51.378;0.018;2022-12-20T05:41:18;7.53;;;3.05;;
26060;SDS011;36331;51.378;0.018;2022-12-20T05:43:51;9.57;;;3.22;;
26060;SDS011;36331;51.378;0.018;2022-12-20T05:46:20;5.65;;;2.97;;
26060;SDS011;36331;51.378;0.018;2022-12-20T05:48:53;10.40;;;3.28;;
26060;SDS011;36331;51.378;0.018;2022-12-20T05:51:24;12.32;;;2.92;;
26060;SDS011;36331;51.378;0.018;2022-12-20T05:54:00;9.48;;;2.80;;
26060;SDS011;36331;51.378;0.018;2022-12-20T05:56:48;8.13;;;2.75;;
26060;SDS011;36331;51.378;0.018;2022-12-20T05:59:22;11.82;;;2.20;;
26060;SDS011;36331;51.378;0.018;2022-12-20T06:01:51;7.25;;;3.05;;
26060;SDS011;36331;51.378;0.018;2022-12-20T06:04:23;8.13;;;1.98;;
26060;SDS011;36331;51.378;0.018;2022-12-20T06:06:53;9.05;;;3.42;;
26060;SDS011;36331;51.378;0.018;2022-12-20T06:09:22;7.07;;;2.95;;
26060;SDS011;36331;51.378;0.018;2022-12-20T06:12:21;10.13;;;2.80;;
26060;SDS011;36331;51.378;0.018;2022-12-20T06:14:51;5.72;;;1.77;;
26060;SDS011;36331;51.378;0.018;2022-12-20T06:17:21;9.60;;;2.35;;
26060;SDS011;36331;51.378;0.018;2022-12-20T06:19:51;13.77;;;2.92;;
26060;SDS011;36331;51.378;0.018;2022-12-20T06:22:22;5.68;;;2.40;;
26060;SDS011;36331;51.378;0.018;2022-12-20T06:24:55;7.03;;;2.55;;
26060;SDS011;36331;51.378;0.018;2022-12-20T06:27:28;6.72;;;2.67;;
26060;SDS011;36331;51.378;0.018;2022-12-20T06:30:09;7.35;;;2.53;;
26060;SDS011;36331;51.378;0.018;2022-12-20T06:32:57;8.60;;;2.33;;
26060;SDS011;36331;51.378;0.018;2022-12-20T06:35:26;7.03;;;2.58;;
26060;SDS011;36331;51.378;0.018;2022-12-20T06:37:57;5.40;;;2.45;;
26060;SDS011;36331;51.378;0.018;2022-12-20T06:40:30;8.55;;;2.25;;
26060;SDS011;36331;51.378;0.018;2022-12-20T06:43:00;9.07;;;3.45;;
26060;SDS011;36331;51.378;0.018;2022-12-20T06:45:29;10.55;;;3.25;;
26060;SDS011;36331;51.378;0.018;2022-12-20T06:48:08;9.15;;;2.38;;
26060;SDS011;36331;51.378;0.018;2022-12-20T06:50:37;10.38;;;3.10;;
26060;SDS011;36331;51.378;0.018;2022-12-20T06:53:08;5.50;;;1.70;;
26060;SDS011;36331;51.378;0.018;2022-12-20T06:55:38;5.00;;;2.05;;
26060;SDS011;36331;51.378;0.018;2022-12-20T06:58:08;9.82;;;3.92;;
26060;SDS011;36331;51.378;0.018;2022-12-20T07:00:37;8.70;;;2.38;;
26060;SDS011;36331;51.378;0.018;2022-12-20T07:03:06;10.25;;;2.58;;
26060;SDS011;36331;51.378;0.018;2022-12-20T07:05:35;13.02;;;3.35;;
26060;SDS011;36331;51.378;0.018;2022-12-20T07:08:05;9.32;;;1.88;;
26060;SDS011;36331;51.378;0.018;2022-12-20T07:10:36;11.75;;;2.78;;
26060;SDS011;36331;51.378;0.018;2022-12-20T07:13:05;8.07;;;3.05;;
26060;SDS011;36331;51.378;0.018;2022-12-20T07:15:35;9.20;;;2.40;;
26060;SDS011;36331;51.378;0.018;2022-12-20T07:18:05;9.98;;;3.08;;
26060;SDS011;36331;51.378;0.018;2022-12-20T07:20:34;8.32;;;1.70;;
26060;SDS011;36331;51.378;0.018;2022-12-20T07:23:03;7.63;;;1.90;;
26060;SDS011;36331;51.378;0.018;2022-12-20T07:25:32;4.80;;;1.70;;
26060;SDS011;36331;51.378;0.018;2022-12-20T07:28:04;15.95;;;2.92;;
26060;SDS011;36331;51.378;0.018;2022-12-20T07:30:33;9.55;;;2.08;;
26060;SDS011;36331;51.378;0.018;2022-12-20T07:33:02;4.97;;;1.45;;
26060;SDS011;36331;51.378;0.018;2022-12-20T07:35:32;1.27;;;0.50;;
26060;SDS011;36331;51.378;0.018;2022-12-20T07:38:02;0.32;;;0.30;;
26060;SDS011;36331;51.378;0.018;2022-12-20T07:40:31;0.55;;;0.17;;
26060;SDS011;36331;51.378;0.018;2022-12-20T07:43:01;1.20;;;0.20;;
26060;SDS011;36331;51.378;0.018;2022-12-20T07:45:31;0.22;;;0.17;;
26060;SDS011;36331;51.378;0.018;2022-12-20T07:48:01;0.20;;;0.20;;
26060;SDS011;36331;51.378;0.018;2022-12-20T07:50:39;0.20;;;0.10;;
26060;SDS011;36331;51.378;0.018;2022-12-20T07:53:09;0.10;;;0.10;;
26060;SDS011;36331;51.378;0.018;2022-12-20T07:55:38;0.10;;;0.10;;
26060;SDS011;36331;51.378;0.018;2022-12-20T07:58:08;0.73;;;0.22;;
26060;SDS011;36331;51.378;0.018;2022-12-20T08:00:39;0.30;;;0.30;;
26060;SDS011;36331;51.378;0.018;2022-12-20T08:03:09;0.10;;;0.10;;
26060;SDS011;36331;51.378;0.018;2022-12-20T08:05:40;0.27;;;0.20;;
26060;SDS011;36331;51.378;0.018;2022-12-20T08:08:11;0.20;;;0.20;;
26060;SDS011;36331;51.378;0.018;2022-12-20T08:10:40;0.30;;;0.20;;
26060;SDS011;36331;51.378;0.018;2022-12-20T08:13:10;0.10;;;0.10;;
26060;SDS011;36331;51.378;0.018;2022-12-20T08:15:40;0.20;;;0.10;;
26060;SDS011;36331;51.378;0.018;2022-12-20T08:18:09;0.10;;;0.10;;
26060;SDS011;36331;51.378;0.018;2022-12-20T08:20:39;0.30;;;0.15;;
26060;SDS011;36331;51.378;0.018;2022-12-20T08:23:08;0.70;;;0.10;;
26060;SDS011;36331;51.378;0.018;2022-12-20T08:25:37;0.55;;;0.25;;
26060;SDS011;36331;51.378;0.018;2022-12-20T08:28:08;0.10;;;0.10;;
26060;SDS011;36331;51.378;0.018;2022-12-20T08:30:37;0.63;;;0.20;;
26060;SDS011;36331;51.378;0.018;2022-12-20T08:33:07;0.38;;;0.10;;
26060;SDS011;36331;51.378;0.018;2022-12-20T08:35:37;0.80;;;0.17;;
26060;SDS011;36331;51.378;0.018;2022-12-20T08:38:06;0.10;;;0.10;;
26060;SDS011;36331;51.378;0.018;2022-12-20T08:40:36;0.52;;;0.30;;
26060;SDS011;36331;51.378;0.018;2022-12-20T08:43:05;0.47;;;0.17;;
26060;SDS011;36331;51.378;0.018;2022-12-20T08:45:37;0.30;;;0.20;;
26060;SDS011;36331;51.378;0.018;2022-12-20T08:48:07;1.10;;;0.10;;
26060;SDS011;36331;51.378;0.018;2022-12-20T08:50:37;0.20;;;0.20;;
26060;SDS011;36331;51.378;0.018;2022-12-20T08:53:06;1.30;;;0.10;;
26060;SDS011;36331;51.378;0.018;2022-12-20T08:55:35;3.22;;;0.22;;
26060;SDS011;36331;51.378;0.018;2022-12-20T08:58:04;0.28;;;0.20;;
26060;SDS011;36331;51.378;0.018;2022-12-20T09:00:34;0.47;;;0.20;;
26060;SDS011;36331;51.378;0.018;2022-12-20T09:03:04;0.47;;;0.30;;
26060;SDS011;36331;51.378;0.018;2022-12-20T09:05:35;0.40;;;0.28;;
26060;SDS011;36331;51.378;0.018;2022-12-20T09:08:05;1.13;;;0.22;;
26060;SDS011;36331;51.378;0.018;2022-12-20T09:10:34;1.48;;;0.30;;
26060;SDS011;36331;51.378;0.018;2022-12-20T09:13:03;1.95;;;0.30;;
26060;SDS011;36331;51.378;0.018;2022-12-20T09:15:32;1.63;;;0.30;;
26060;SDS011;36331;51.378;0.018;2022-12-20T09:18:02;2.25;;;0.52;;
26060;SDS011;36331;51.378;0.018;2022-12-20T09:20:31;2.28;;;0.20;;
26060;SDS011;36331;51.378;0.018;2022-12-20T09:23:01;1.58;;;0.55;;
26060;SDS011;36331;51.378;0.018;2022-12-20T09:25:32;2.78;;;0.30;;
26060;SDS011;36331;51.378;0.018;2022-12-20T09:28:12;1.92;;;0.30;;
26060;SDS011;36331;51.378;0.018;2022-12-20T09:30:42;2.58;;;0.93;;
26060;SDS011;36331;51.378;0.018;2022-12-20T09:33:11;3.72;;;0.45;;
26060;SDS011;36331;51.378;0.018;2022-12-20T09:35:43;1.00;;;0.25;;
26060;SDS011;36331;51.378;0.018;2022-12-20T09:38:14;2.10;;;0.60;;
26060;SDS011;36331;51.378;0.018;2022-12-20T09:40:43;3.75;;;0.40;;
26060;SDS011;36331;51.378;0.018;2022-12-20T09:43:18;3.17;;;0.40;;
26060;SDS011;36331;51.378;0.018;2022-12-20T09:45:50;2.92;;;0.35;;
26060;SDS011;36331;51.378;0.018;2022-12-20T09:48:27;3.75;;;0.75;;
26060;SDS011;36331;51.378;0.018;2022-12-20T09:51:01;1.33;;;0.40;;
26060;SDS011;36331;51.378;0.018;2022-12-20T09:53:39;3.15;;;0.35;;
26060;SDS011;36331;51.378;0.018;2022-12-20T09:56:11;3.90;;;1.17;;
26060;SDS011;36331;51.378;0.018;2022-12-20T09:58:45;3.53;;;0.50;;
26060;SDS011;36331;51.378;0.018;2022-12-20T10:01:21;1.67;;;0.50;;
26060;SDS011;36331;51.378;0.018;2022-12-20T10:04:01;2.13;;;0.30;;
26060;SDS011;36331;51.378;0.018;2022-12-20T10:06:36;1.63;;;0.43;;
26060;SDS011;36331;51.378;0.018;2022-12-20T10:09:12;2.45;;;0.47;;
26060;SDS011;36331;51.378;0.018;2022-12-20T10:11:56;5.45;;;0.50;;
26060;SDS011;36331;51.378;0.018;2022-12-20T10:14:32;7.38;;;0.60;;
26060;SDS011;36331;51.378;0.018;2022-12-20T10:17:07;5.35;;;0.50;;
26060;SDS011;36331;51.378;0.018;2022-12-20T10:19:46;5.50;;;0.40;;
26060;SDS011;36331;51.378;0.018;2022-12-20T10:22:17;3.25;;;1.00;;
26060;SDS011;36331;51.378;0.018;2022-12-20T10:24:51;2.22;;;0.40;;
26060;SDS011;36331;51.378;0.018;2022-12-20T10:27:28;1.60;;;0.60;;
26060;SDS011;36331;51.378;0.018;2022-12-20T10:30:04;5.85;;;0.90;;
26060;SDS011;36331;51.378;0.018;2022-12-20T10:35:14;8.85;;;1.35;;
26060;SDS011;36331;51.378;0.018;2022-12-20T10:37:55;3.17;;;0.73;;
26060;SDS011;36331;51.378;0.018;2022-12-20T10:40:42;5.45;;;0.75;;
26060;SDS011;36331;51.378;0.018;2022-12-20T10:43:35;4.03;;;0.77;;
26060;SDS011;36331;51.378;0.018;2022-12-20T10:46:10;4.70;;;0.57;;
26060;SDS011;36331;51.378;0.018;2022-12-20T10:48:41;2.50;;;0.73;;
26060;SDS011;36331;51.378;0.018;2022-12-20T10:51:17;3.25;;;1.23;;
26060;SDS011;36331;51.378;0.018;2022-12-20T10:53:52;1.92;;;1.10;;
26060;SDS011;36331;51.378;0.018;2022-12-20T10:56:24;5.22;;;1.90;;
26060;SDS011;36331;51.378;0.018;2022-12-20T10:58:56;4.75;;;1.00;;
26060;SDS011;36331;51.378;0.018;2022-12-20T11:01:28;6.03;;;1.95;;
26060;SDS011;36331;51.378;0.018;2022-12-20T11:04:00;6.22;;;0.88;;
26060;SDS011;36331;51.378;0.018;2022-12-20T11:06:42;6.60;;;1.35;;
26060;SDS011;36331;51.378;0.018;2022-12-20T11:12:11;3.22;;;0.88;;
26060;SDS011;36331;51.378;0.018;2022-12-20T11:14:44;2.92;;;0.73;;
26060;SDS011;36331;51.378;0.018;2022-12-20T11:17:24;9.02;;;1.35;;
26060;SDS011;36331;51.378;0.018;2022-12-20T11:20:12;8.15;;;1.13;;
26060;SDS011;36331;51.378;0.018;2022-12-20T11:22:50;5.47;;;1.00;;
26060;SDS011;36331;51.378;0.018;2022-12-20T11:25:29;4.57;;;1.00;;
26060;SDS011;36331;51.378;0.018;2022-12-20T11:28:07;6.13;;;1.33;;
26060;SDS011;36331;51.378;0.018;2022-12-20T11:30:40;12.52;;;1.00;;
26060;SDS011;36331;51.378;0.018;2022-12-20T11:33:21;4.88;;;0.93;;
26060;SDS011;36331;51.378;0.018;2022-12-20T11:35:54;4.15;;;1.38;;
26060;SDS011;36331;51.378;0.018;2022-12-20T11:38:29;11.60;;;1.50;;
26060;SDS011;36331;51.378;0.018;2022-12-20T11:41:10;11.25;;;1.83;;
26060;SDS011;36331;51.378;0.018;2022-12-20T11:43:53;7.00;;;0.93;;
26060;SDS011;36331;51.378;0.018;2022-12-20T11:46:51;2.60;;;0.82;;
26060;SDS011;36331;51.378;0.018;2022-12-20T11:52:11;4.90;;;1.30;;
26060;SDS011;36331;51.378;0.018;2022-12-20T11:54:46;5.43;;;1.02;;
26060;SDS011;36331;51.378;0.018;2022-12-20T11:57:17;8.55;;;1.52;;
26060;SDS011;36331;51.378;0.018;2022-12-20T11:59:52;7.43;;;1.15;;
26060;SDS011;36331;51.378;0.018;2022-12-20T12:02:24;6.72;;;1.20;;
26060;SDS011;36331;51.378;0.018;2022-12-20T12:04:57;6.63;;;1.38;;
26060;SDS011;36331;51.378;0.018;2022-12-20T12:07:28;11.15;;;1.20;;
26060;SDS011;36331;51.378;0.018;2022-12-20T12:10:00;8.13;;;1.00;;
26060;SDS011;36331;51.378;0.018;2022-12-20T12:12:36;6.25;;;1.17;;
26060;SDS011;36331;51.378;0.018;2022-12-20T12:15:11;7.97;;;1.63;;
26060;SDS011;36331;51.378;0.018;2022-12-20T12:17:47;5.40;;;1.42;;
26060;SDS011;36331;51.378;0.018;2022-12-20T12:20:22;10.10;;;1.40;;
26060;SDS011;36331;51.378;0.018;2022-12-20T12:22:53;11.20;;;1.60;;
26060;SDS011;36331;51.378;0.018;2022-12-20T12:25:24;7.72;;;1.08;;
26060;SDS011;36331;51.378;0.018;2022-12-20T12:27:54;8.57;;;1.58;;
26060;SDS011;36331;51.378;0.018;2022-12-20T12:30:25;10.20;;;1.92;;
26060;SDS011;36331;51.378;0.018;2022-12-20T12:33:01;9.20;;;1.75;;
26060;SDS011;36331;51.378;0.018;2022-12-20T12:35:37;13.90;;;2.05;;
26060;SDS011;36331;51.378;0.018;2022-12-20T12:38:15;6.72;;;1.17;;
26060;SDS011;36331;51.378;0.018;2022-12-20T12:43:43;8.57;;;1.60;;
26060;SDS011;36331;51.378;0.018;2022-12-20T12:46:23;10.60;;;1.40;;
26060;SDS011;36331;51.378;0.018;2022-12-20T12:48:55;9.82;;;2.40;;
26060;SDS011;36331;51.378;0.018;2022-12-20T12:51:35;8.45;;;1.30;;
26060;SDS011;36331;51.378;0.018;2022-12-20T12:54:14;6.15;;;1.73;;
26060;SDS011;36331;51.378;0.018;2022-12-20T12:56:45;7.72;;;2.15;;
26060;SDS011;36331;51.378;0.018;2022-12-20T12:59:22;8.30;;;2.30;;
26060;SDS011;36331;51.378;0.018;2022-12-20T13:02:18;11.38;;;2.40;;
26060;SDS011;36331;51.378;0.018;2022-12-20T13:04:54;8.32;;;1.55;;
26060;SDS011;36331;51.378;0.018;2022-12-20T13:07:25;7.10;;;1.45;;
26060;SDS011;36331;51.378;0.018;2022-12-20T13:09:59;9.48;;;1.80;;
26060;SDS011;36331;51.378;0.018;2022-12-20T13:18:19;12.43;;;2.53;;
26060;SDS011;36331;51.378;0.018;2022-12-20T13:23:45;7.60;;;1.35;;
26060;SDS011;36331;51.378;0.018;2022-12-20T13:29:17;7.75;;;1.58;;
26060;SDS011;36331;51.378;0.018;2022-12-20T13:31:50;7.63;;;1.85;;
26060;SDS011;36331;51.378;0.018;2022-12-20T13:34:35;11.55;;;1.35;;
26060;SDS011;36331;51.378;0.018;2022-12-20T13:37:27;10.48;;;1.92;;
26060;SDS011;36331;51.378;0.018;2022-12-20T13:39:56;5.60;;;1.75;;
26060;SDS011;36331;51.378;0.018;2022-12-20T13:42:33;10.48;;;2.95;;
26060;SDS011;36331;51.378;0.018;2022-12-20T13:45:08;7.95;;;1.30;;
26060;SDS011;36331;51.378;0.018;2022-12-20T13:47:46;10.60;;;2.55;;
26060;SDS011;36331;51.378;0.018;2022-12-20T13:50:25;12.35;;;1.63;;
26060;SDS011;36331;51.378;0.018;2022-12-20T13:52:55;11.57;;;2.17;;
26060;SDS011;36331;51.378;0.018;2022-12-20T13:55:33;11.10;;;1.90;;
26060;SDS011;36331;51.378;0.018;2022-12-20T13:58:04;8.10;;;1.50;;
26060;SDS011;36331;51.378;0.018;2022-12-20T14:00:34;8.25;;;1.58;;
26060;SDS011;36331;51.378;0.018;2022-12-20T14:03:18;10.52;;;1.52;;
26060;SDS011;36331;51.378;0.018;2022-12-20T14:05:50;8.45;;;2.10;;
26060;SDS011;36331;51.378;0.018;2022-12-20T14:08:21;13.80;;;1.50;;
26060;SDS011;36331;51.378;0.018;2022-12-20T14:10:52;8.10;;;1.37;;
26060;SDS011;36331;51.378;0.018;2022-12-20T14:13:22;6.70;;;2.20;;
26060;SDS011;36331;51.378;0.018;2022-12-20T14:15:52;6.07;;;1.70;;
26060;SDS011;36331;51.378;0.018;2022-12-20T14:18:23;10.70;;;2.15;;
26060;SDS011;36331;51.378;0.018;2022-12-20T14:20:55;9.93;;;2.38;;
26060;SDS011;36331;51.378;0.018;2022-12-20T14:23:28;11.10;;;2.90;;
26060;SDS011;36331;51.378;0.018;2022-12-20T14:26:02;11.18;;;2.42;;
26060;SDS011;36331;51.378;0.018;2022-12-20T14:28:34;11.68;;;2.60;;
26060;SDS011;36331;51.378;0.018;2022-12-20T14:31:04;13.02;;;1.83;;
26060;SDS011;36331;51.378;0.018;2022-12-20T14:33:34;10.73;;;2.45;;
26060;SDS011;36331;51.378;0.018;2022-12-20T14:36:10;9.10;;;1.88;;
26060;SDS011;36331;51.378;0.018;2022-12-20T14:38:48;10.80;;;2.28;;
26060;SDS011;36331;51.378;0.018;2022-12-20T14:41:30;7.30;;;1.90;;
26060;SDS011;36331;51.378;0.018;2022-12-20T14:44:14;8.98;;;1.85;;
26060;SDS011;36331;51.378;0.018;2022-12-20T14:46:47;13.73;;;2.30;;
26060;SDS011;36331;51.378;0.018;2022-12-20T14:49:19;10.63;;;2.00;;
26060;SDS011;36331;51.378;0.018;2022-12-20T14:52:02;12.50;;;2.00;;
26060;SDS011;36331;51.378;0.018;2022-12-20T14:54:41;13.68;;;2.58;;
26060;SDS011;36331;51.378;0.018;2022-12-20T14:57:37;17.98;;;2.20;;
26060;SDS011;36331;51.378;0.018;2022-12-20T15:00:11;35.90;;;3.20;;
26060;SDS011;36331;51.378;0.018;2022-12-20T15:02:41;18.13;;;2.03;;
26060;SDS011;36331;51.378;0.018;2022-12-20T15:08:10;9.82;;;2.15;;
26060;SDS011;36331;51.378;0.018;2022-12-20T15:10:40;11.23;;;2.58;;
26060;SDS011;36331;51.378;0.018;2022-12-20T15:13:11;15.32;;;4.03;;
26060;SDS011;36331;51.378;0.018;2022-12-20T15:15:41;20.02;;;3.97;;
26060;SDS011;36331;51.378;0.018;2022-12-20T15:18:18;12.70;;;2.90;;
26060;SDS011;36331;51.378;0.018;2022-12-20T15:20:53;14.52;;;2.90;;
26060;SDS011;36331;51.378;0.018;2022-12-20T15:23:28;14.63;;;2.42;;
26060;SDS011;36331;51.378;0.018;2022-12-20T15:25:58;11.63;;;2.70;;
26060;SDS011;36331;51.378;0.018;2022-12-20T15:28:28;13.57;;;2.60;;
26060;SDS011;36331;51.378;0.018;2022-12-20T15:30:57;15.30;;;2.72;;
26060;SDS011;36331;51.378;0.018;2022-12-20T15:33:29;9.80;;;2.42;;
26060;SDS011;36331;51.378;0.018;2022-12-20T15:35:59;12.48;;;2.92;;
26060;SDS011;36331;51.378;0.018;2022-12-20T15:38:30;12.57;;;3.72;;
26060;SDS011;36331;51.378;0.018;2022-12-20T15:41:21;14.60;;;3.40;;
26060;SDS011;36331;51.378;0.018;2022-12-20T15:43:56;15.98;;;2.83;;
26060;SDS011;36331;51.378;0.018;2022-12-20T15:46:26;14.60;;;3.45;;